Saint Paul, Canada
Current Conditions -  °F | °C
As of 9:00 AM on Saturday 22 Nov 2014 (Local Time) from CYOD Reporting Station
Snow Showers Snow Showers  
Wind Chill:   Ceiling: 2500
Heat Index: 19°   Visibility: 1.5mi
Dew Point: 18°   Wind: 20mph
Humidity: 93%   Direction: 80°E
Pressure: 29.31"   Gusts: NA
Location:  53.98°N, 111.28°W
Report Text: CYOD 221600Z 08017KT 1 1/2SM -SHSN OVC025 M07/M08 A2931 RMK SN2SC6 SLP957
Loading
Personal Weather Stations






























Interactive Weather Map New forecast layout! Learn more

10-Day Weather Forecast

Advertisements
Track Severe Weather on mobile